Hillsboro, WV (24946)

6:01 AM EDT on July 30, 2014 (GMT -0400)
KC8LRN and N8SUE (KWVHILLS1) Elev 2400 ft | 38.14 °N, 80.18 °W | Change Station

Current weather conditions updated 4 seconds ago

Fog
Fog
49.2 °F
Feels Like 49 °F
N
2.5
Wind Variable Wind from SE
Gusts 3.2 mph

Today is forecast to be Warmer than yesterday.

Today
High -- | Low -- °F
--% Chance of Precip.
Yesterday
High -- | Low -- °F
Precip. -- in
6:21 AM 8:32 PM
Waxing Crescent, 11% visible
Pressure 30.13 in
Visibility 0.2 miles
Clouds Overcast 100 ft
Windchill 49 °F
Dew Point 49 °F
Humidity 98%
Rainfall 0.00 in
Snow Depth Not available.
UV 0 out of 12
Pollen 5.20 out of 12
Air Quality Not available.
Flu Activity Not available.
METAR KLWB 300935Z AUTO 02003KT M1/4SM FG OVC001 10/08 A3013 RMK AO2 T00950084

More Conditions Fewer Conditions

Pressure 30.13 in
Visibility 0.2 miles
Clouds Overcast 100 ft
Windchill 49 °F
Dew Point 49 °F
Humidity 98%
Rainfall 0.00 in
Snow Depth Not available.
UV 0 out of 12
Pollen 5.20 out of 12
Air Quality Not available.
Flu Activity Not available.
METAR KLWB 300935Z AUTO 02003KT M1/4SM FG OVC001 10/08 A3013 RMK AO2 T00950084

More Conditions Fewer Conditions

10-Day Weather Forecast

Almanac

Astronomy

Jul. 30, 2014 Rise Set
Actual Time 6:21 AM EDT 8:32 PM EDT
Civil Twilight 5:52 AM EDT 9:01 PM EDT
Nautical Twilight 5:16 AM EDT 9:37 PM EDT
Astronomical Twilight 4:37 AM EDT 10:16 PM EDT
Moon 9:48 AM EDT 10:18 PM EDT
Length of Visible Light 15h 09m
Length of Day
14h 10m
Tomorrow will be 1m 49s shorter.
Waxing Crescent, 11% of the Moon is Illuminated
Today
Waxing Crescent
Aug 3
First Quarter
Aug 10
Full
Aug 17
Last Quarter
Aug 25
New

Today's Extremes

State Highs State Lows

Community

WunderPhotos

Upload Photos

1,739,032 photos uploaded!

WunderBlogs® & News

Nearby

Snow Depth

Station Depth Elevation
No new snow has been reported.

Earthquake Activity

City Distance Mag. Time & Date
No recent earthquake activity has been reported nearby.
Minimum magnitude displayed is 2.5.

Coastal Water Temperatures

Place Temperature
No Stations Reporting

Nearby Weather Stations

Station Location Temp. Windchill Dew Point Humidity Wind Precip. Elev Updated Type
KC8LRN and N8SUE, Pocahontas County Hillsboro, WV 49.2 °F 49 °F 49 °F 98% SE  at  2.5 mph 0.00 in / hr 2400 ft 6:01 AM EDT Rapid Fire
Bunny's Holler Live Weather, Auto, WV 48.3 °F 48 °F 45 °F 89% ENE  at  0.0 mph 0.00 in / hr 2543 ft 6:01 AM EDT Rapid Fire
North of End of the Trail Campground, Neola, WV 48.6 °F 49 °F 48 °F 99% North  at  0.0 mph 0.00 in / hr 2126 ft 6:01 AM EDT Rapid Fire
Anthonys Creek, White Sulphur Springs, WV 50.2 °F - 46 °F 87% North  at  0.0 mph 0.00 in / hr 2066 ft 5:57 AM EDT Normal
Snowshoe, Snowshoe, WV 47.1 °F 42 °F 39 °F 73% WSW  at  11.0 mph - / hr 3261 ft 5:51 AM EDT Normal
Thomastown, Hot Springs, VA 48.2 °F 48 °F 48 °F 98% ENE  at  0.0 mph 0.00 in / hr 2290 ft 6:01 AM EDT Rapid Fire

Show More Stations Show Fewer Stations